Flight Track Log - Related Links

Times and Time Zones

All times are in EDT time to prevent confusion due to time zone crossing. See the NKS409 flight status page for this flight to view local times or setup timezone preferences in your user account.

Time Position Orientation Groundspeed Altitude Reporting Facility
EDT Latitude Longitude Course Direction KTS MPH feet Rate Location/Type
Sun 06:41:46 AM 42.0170 -87.9630 329° Northwest 176 203 2,500  Level FlightAware ADS-B
Sun 06:42:21 AM 42.0390 -87.9810 32° Northeast 192 221 3,400 1,400 Climbing FlightAware ADS-B
Sun 06:42:46 AM 42.0620 -87.9620 51° Northeast 234 269 3,900 1,200 Climbing FlightAware ADS-B
Sun 06:43:01 AM 42.0730 -87.9440 77° East 256 295 4,200 1,600 Climbing FlightAware ADS-B
Sun 06:43:16 AM 42.0770 -87.9200 98° East 283 326 4,700 2,700 Climbing FlightAware ADS-B
Sun 06:43:41 AM 42.0720 -87.8740 103° East 290 334 6,000 2,727 Climbing FlightAware ADS-B
Sun 06:44:11 AM 42.0630 -87.8200 100° East 306 352 7,200 2,533 Climbing FlightAware ADS-B
Sun 06:44:26 AM 42.0590 -87.7890 101° East 310 357 7,900 2,267 Climbing FlightAware ADS-B
Sun 06:44:56 AM 42.0500 -87.7290 101° East 330 380 8,900 2,291 Climbing FlightAware ADS-B
Sun 06:45:21 AM 42.0430 -87.6820 102° East 332 382 10,000 1,846 Climbing FlightAware ADS-B
Sun 06:46:01 AM 42.0300 -87.5970 102° East 367 422 10,900 1,553 Climbing FlightAware ADS-B
Sun 06:46:46 AM 42.0120 -87.4860 85° East 397 457 12,200 1,694 Climbing FlightAware ADS-B
Sun 06:47:26 AM 42.0180 -87.3900 77° East 416 479 13,300 1,976 Climbing FlightAware ADS-B
Sun 06:48:11 AM 42.0380 -87.2770 76° East 422 486 15,000 2,047 Climbing FlightAware ADS-B
Sun 06:48:51 AM 42.0570 -87.1760 76° East 429 494 16,200 1,714 Climbing FlightAware ADS-B
Sun 06:49:42 AM 42.0814 -87.0447 76° East 414 476 17,600 1,622 Climbing Chicago Center
Sun 06:50:42 AM 42.1114 -86.8811 76° East 425 489 19,200 1,450 Climbing Chicago Center
Sun 06:51:42 AM 42.1431 -86.7147 78° East 442 509 20,500 1,350 Climbing Chicago Center
Sun 06:52:42 AM 42.1703 -86.5453 74° East 447 514 21,900 1,350 Climbing Chicago Center
Sun 06:53:42 AM 42.2078 -86.3728 75° East 464 534 23,200 1,250 Climbing Chicago Center
Sun 06:54:42 AM 42.2428 -86.2000 78° East 470 541 24,400 1,100 Climbing Chicago Center
Sun 06:55:42 AM 42.2728 -86.0161 84° East 484 557 25,400 800 Climbing Chicago Center
Sun 06:56:42 AM 42.2867 -85.8469 83° East 495 570 26,000 750 Climbing Chicago Center
Sun 06:57:42 AM 42.3033 -85.6494 80° East 508 585 26,900 800 Climbing Chicago Center
Sun 06:58:42 AM 42.3283 -85.4542 73° East 521 600 27,600 600 Climbing Chicago Center
Sun 06:59:42 AM 42.3714 -85.2575 67° East 528 608 28,100 588 Climbing Chicago Center
Sun 07:01:15 AM 42.4714 -84.9414 56° Northeast 565 650 29,100 902 Climbing Cleveland Center
Sun 07:02:15 AM 42.5569 -84.7694 47° Northeast 547 629 30,400 1,100 Climbing Cleveland Center
Sun 07:03:15 AM 42.6606 -84.6183 72° East 543 625 31,300 1,000 Climbing Cleveland Center
Sun 07:04:15 AM 42.7044 -84.4289 113° Southeast 520 598 32,400 1,120 Climbing Cleveland Center
Sun 07:06:01 AM 42.6160 -84.1490 145° Southeast 455 524 34,400 992 Climbing FlightAware ADS-B
Sun 07:06:16 AM 42.5950 -84.1290 153° Southeast 443 510 34,400 545 Level FlightAware ADS-B
Sun 07:06:56 AM 42.5230 -84.0800 154° Southeast 437 503 34,900 424 Climbing FlightAware ADS-B
Sun 07:07:41 AM 42.4340 -84.0220 154° Southeast 432 497 35,000 71 Climbing FlightAware ADS-B
Sun 07:08:21 AM 42.3730 -83.9820 154° Southeast 438 504 35,000  Level FlightAware ADS-B
Sun 07:09:06 AM 42.2870 -83.9260 155° Southeast 450 518 35,000  Level FlightAware ADS-B
Sun 07:09:46 AM 42.2120 -83.8780 154° Southeast 455 524 35,000  Level FlightAware ADS-B
Sun 07:10:42 AM 42.1030 -83.8070 154° Southeast 453 521 35,000 52 Level FlightAware ADS-B
Sun 07:11:41 AM 41.9980 -83.7390 155° Southeast 449 517 35,100  Climbing FlightAware ADS-B
Sun 07:12:11 AM 41.9360 -83.7000 154° Southeast 446 513 35,000 -80 Descending FlightAware ADS-B
Sun 07:12:56 AM 41.8490 -83.6440 154° Southeast 440 506 35,000  Level FlightAware ADS-B
Sun 07:13:26 AM 41.7930 -83.6080 155° Southeast 438 504 35,000  Level FlightAware ADS-B
Sun 07:14:26 AM 41.7010 -83.5500 156° South 436 502 35,000  Level FlightAware ADS-B
Sun 07:15:15 AM 41.6000 -83.4906 154° Southeast 442 509 35,000  Level Cleveland Center
Sun 07:16:15 AM 41.4892 -83.4189 155° Southeast 437 503 35,000  Level Cleveland Center
Sun 07:17:15 AM 41.3803 -83.3506 155° Southeast 437 503 35,000  Level Cleveland Center
Sun 07:18:15 AM 41.2653 -83.2794 155° Southeast 442 509 35,000  Level Cleveland Center
Sun 07:19:15 AM 41.1522 -83.2086 155° Southeast 454 522 35,000 50 Level Cleveland Center
Sun 07:20:15 AM 41.0247 -83.1292 151° Southeast 454 522 35,100  Climbing Cleveland Center
Sun 07:21:15 AM 40.9119 -83.0478 138° Southeast 460 529 35,000 -33 Descending Cleveland Center
Sun 07:23:16 AM 40.7219 -82.8258 138° Southeast 459 528 35,000  Level Indianapolis Center
Sun 07:24:16 AM 40.6317 -82.7175 145° Southeast 454 522 35,000  Level Indianapolis Center
Sun 07:25:16 AM 40.5308 -82.6231 157° South 449 517 35,000  Level Indianapolis Center
Sun 07:26:16 AM 40.4178 -82.5592 152° Southeast 436 502 35,000  Level Indianapolis Center
Sun 07:27:16 AM 40.3086 -82.4844 155° Southeast 441 507 35,000  Level Indianapolis Center
Sun 07:28:16 AM 40.1975 -82.4156 153° Southeast 442 509 35,000 -50 Level Indianapolis Center
Sun 07:29:15 AM 40.0844 -82.3414 154° Southeast 452 520 34,900  Descending Indianapolis Center
Sun 07:30:16 AM 39.9669 -82.2678 175° South 460 529 35,000 50 Climbing Indianapolis Center
Sun 07:31:15 AM 39.8394 -82.2539 177° South 460 529 35,000 -50 Level Indianapolis Center
Sun 07:32:16 AM 39.7247 -82.2450 177° South 460 529 34,900 -50 Descending Indianapolis Center
Sun 07:33:16 AM 39.5953 -82.2367 176° South 465 535 34,900  Level Indianapolis Center
Sun 07:34:16 AM 39.4681 -82.2256 178° South 460 529 34,900 50 Level Indianapolis Center
Sun 07:35:15 AM 39.3283 -82.2203 177° South 460 529 35,000 50 Climbing Indianapolis Center
Sun 07:36:16 AM 39.1989 -82.2119 176° South 465 535 35,000  Level Indianapolis Center
Sun 07:37:16 AM 39.0675 -82.2011 177° South 465 535 35,000  Level Indianapolis Center
Sun 07:38:16 AM 38.9381 -82.1928 178° South 465 535 35,000  Level Indianapolis Center
Sun 07:39:15 AM 38.8086 -82.1872 176° South 465 535 35,000  Level Indianapolis Center
Sun 07:40:16 AM 38.6750 -82.1739 177° South 471 542 35,000  Level Indianapolis Center
Sun 07:41:15 AM 38.5456 -82.1656 177° South 471 542 35,000  Level Indianapolis Center
Sun 07:42:16 AM 38.4142 -82.1575 176° South 476 548 35,000  Level Indianapolis Center
Sun 07:43:16 AM 38.2869 -82.1467 177° South 476 548 35,000  Level Indianapolis Center
Sun 07:44:16 AM 38.1533 -82.1389 176° South 476 548 35,000  Level Indianapolis Center
Sun 07:45:15 AM 38.0239 -82.1281 177° South 481 554 35,000  Level Indianapolis Center
Sun 07:46:16 AM 37.8922 -82.1200 177° South 476 548 35,000  Level Indianapolis Center
Sun 07:47:16 AM 37.7775 -82.1119 177° South 470 541 35,000  Level Indianapolis Center
Sun 07:49:03 AM 37.5419 -82.0944 176° South 471 542 35,000  Level Atlanta Center
Sun 07:50:03 AM 37.4000 -82.0822 177° South 471 542 35,000  Level Atlanta Center
Sun 07:51:03 AM 37.2686 -82.0750 177° South 471 542 35,000  Level Atlanta Center
Sun 07:52:03 AM 37.1372 -82.0653 177° South 476 548 35,000  Level Atlanta Center
Sun 07:53:03 AM 37.0078 -82.0556 177° South 476 548 35,000  Level Atlanta Center
Sun 07:54:03 AM 36.8742 -82.0458 177° South 481 554 35,000  Level Atlanta Center
Sun 07:55:03 AM 36.7428 -82.0364 177° South 476 548 35,000  Level Atlanta Center
Sun 07:56:03 AM 36.6111 -82.0292 177° South 476 548 35,000  Level Atlanta Center
Sun 07:57:03 AM 36.4797 -82.0197 178° South 476 548 35,000  Level Atlanta Center
Sun 07:58:03 AM 36.3481 -82.0128 177° South 476 548 35,000  Level Atlanta Center
Sun 07:59:03 AM 36.2186 -82.0056 178° South 471 542 35,000  Level Atlanta Center
Sun 08:00:03 AM 36.0892 -81.9986 177° South 463 533 35,000  Level Atlanta Center
Sun 08:01:03 AM 35.9536 -81.9892 178° South 483 556 35,000  Level Atlanta Center
Sun 08:02:03 AM 35.8325 -81.9844 177° South 483 556 35,000 150 Level Atlanta Center
Sun 08:03:03 AM 35.7008 -81.9750 178° South 477 549 35,300 450 Climbing Atlanta Center
Sun 08:04:03 AM 35.5672 -81.9683 177° South 477 549 35,900 350 Climbing Atlanta Center
Sun 08:05:03 AM 35.4356 -81.9589 177° South 477 549 36,000 50 Climbing Atlanta Center
Sun 08:06:03 AM 35.3042 -81.9494 177° South 472 543 36,000  Level Atlanta Center
Sun 08:07:03 AM 35.1703 -81.9400 178° South 478 550 36,000  Level Atlanta Center
Sun 08:08:03 AM 35.0389 -81.9333 186° South 478 550 36,000  Level Atlanta Center
Sun 08:09:03 AM 34.8953 -81.9519 188° South 478 550 36,000  Level Atlanta Center
Sun 08:10:03 AM 34.7642 -81.9756 189° South 478 550 36,000  Level Atlanta Center
Sun 08:11:03 AM 34.6350 -82.0014 187° South 478 550 36,000  Level Atlanta Center
Sun 08:12:03 AM 34.5039 -82.0222 188° South 478 550 36,000  Level Atlanta Center
Sun 08:13:03 AM 34.3750 -82.0431 188° South 484 557 36,000  Level Atlanta Center
Sun 08:14:03 AM 34.2439 -82.0661 188° South 484 557 36,000  Level Atlanta Center
Sun 08:15:03 AM 34.1128 -82.0894 188° South 484 557 36,000  Level Atlanta Center
Sun 08:16:03 AM 33.9817 -82.1122 188° South 484 557 36,000  Level Atlanta Center
Sun 08:17:03 AM 33.8525 -82.1328 189° South 484 557 36,000  Level Atlanta Center
Sun 08:18:03 AM 33.7214 -82.1581 188° South 484 557 36,000  Level Atlanta Center
Sun 08:19:11 AM 33.5800 -82.1830 188° South 474 545 36,000  Level FlightAware ADS-B
Sun 08:20:21 AM 33.4310 -82.2070 187° South 468 539 36,000  Level FlightAware ADS-B
Sun 08:21:01 AM 33.3420 -82.2210 183° South 467 537 36,000  Level FlightAware ADS-B
Sun 08:21:03 AM 33.3403 -82.2211 187° South 484 557 36,000  Level Atlanta Center
Sun 08:22:03 AM 33.2092 -82.2414 189° South 484 557 36,000  Level Atlanta Center
Sun 08:22:26 AM 33.1590 -82.2510 188° South 473 544 36,000  Level FlightAware ADS-B
Sun 08:23:03 AM 33.0781 -82.2639 188° South 484 557 36,000  Level Atlanta Center
Sun 08:23:11 AM 33.0590 -82.2670 188° South 473 544 36,000  Level FlightAware ADS-B
Sun 08:23:51 AM 32.9730 -82.2810 187° South 471 542 36,000  Level FlightAware ADS-B
Sun 08:25:19 AM 32.7728 -82.3119 189° South 464 534 36,000  Level Jacksonville Center
Sun 08:26:20 AM 32.6433 -82.3350 187° South 464 534 36,000  Level Jacksonville Center
Sun 08:27:19 AM 32.5161 -82.3531 188° South 464 534 36,000  Level Jacksonville Center
Sun 08:28:19 AM 32.3931 -82.3733 203° Southwest 464 534 36,000  Level Jacksonville Center
Sun 08:29:19 AM 32.2722 -82.4331 208° Southwest 459 528 36,000  Level Jacksonville Center
Sun 08:30:19 AM 32.1597 -82.5025 202° Southwest 459 528 36,000  Level Jacksonville Center
Sun 08:31:19 AM 32.0408 -82.5592 203° Southwest 459 528 36,000  Level Jacksonville Center
Sun 08:32:19 AM 31.9242 -82.6183 224° Southwest 459 528 36,000  Level Jacksonville Center
Sun 08:33:19 AM 31.8322 -82.7214 224° Southwest 448 516 36,000  Level Jacksonville Center
Sun 08:34:19 AM 31.7428 -82.8242 192° South 454 522 36,000  Level Jacksonville Center
Sun 08:35:19 AM 31.6217 -82.8536 165° South 433 498 36,000  Level Jacksonville Center
Sun 08:36:19 AM 31.5025 -82.8169 168° South 427 491 36,000  Level Jacksonville Center
Sun 08:37:19 AM 31.3814 -82.7881 166° South 421 484 36,000  Level Jacksonville Center
Sun 08:38:19 AM 31.2667 -82.7542 174° South 427 491 36,000 -50 Level Jacksonville Center
Sun 08:39:19 AM 31.1414 -82.7397 174° South 434 499 35,900  Descending Jacksonville Center
Sun 08:40:19 AM 31.0244 -82.7253 172° South 434 499 36,000 50 Climbing Jacksonville Center
Sun 08:41:19 AM 30.9011 -82.7061 175° South 434 499 36,000  Level Jacksonville Center
Sun 08:42:19 AM 30.7758 -82.6942 183° South 449 517 36,000 -50 Level Jacksonville Center
Sun 08:43:20 AM 30.6547 -82.7017 181° South 444 511 35,900 149 Descending Jacksonville Center
Sun 08:44:20 AM 30.5336 -82.7044 182° South 444 511 36,300 504 Climbing Jacksonville Center
Sun 08:45:19 AM 30.4083 -82.7094 183° South 438 504 36,900 350 Climbing Jacksonville Center
Sun 08:46:20 AM 30.2853 -82.7169 181° South 438 504 37,000  Climbing Jacksonville Center
Sun 08:47:19 AM 30.1619 -82.7197 175° South 443 510 36,900  Descending Jacksonville Center
Sun 08:48:19 AM 30.0347 -82.7078 176° South 443 510 37,000  Climbing Jacksonville Center
Sun 08:49:20 AM 29.9053 -82.6986 175° South 457 526 36,900 -50 Descending Jacksonville Center
Sun 08:50:19 AM 29.7800 -82.6867 174° South 462 532 36,900  Level Jacksonville Center
Sun 08:51:19 AM 29.6567 -82.6728 175° South 462 532 36,900 50 Level Jacksonville Center
Sun 08:52:19 AM 29.5314 -82.6611 174° South 456 525 37,000 50 Climbing Jacksonville Center
Sun 08:53:20 AM 29.4019 -82.6447 176° South 461 531 37,000  Level Jacksonville Center
Sun 08:54:19 AM 29.2767 -82.6356 175° South 461 531 37,000 -50 Level Jacksonville Center
Sun 08:55:19 AM 29.1536 -82.6239 175° South 461 531 36,900 -50 Descending Jacksonville Center
Sun 08:56:19 AM 29.0283 -82.6122 176° South 461 531 36,900  Level Jacksonville Center
Sun 08:57:19 AM 28.9008 -82.6008 176° South 461 531 36,900 50 Level Jacksonville Center
Sun 08:58:19 AM 28.7736 -82.5894 176° South 461 531 37,000 50 Climbing Jacksonville Center
Sun 08:59:19 AM 28.6608 -82.5803 173° South 461 531 37,000  Level Jacksonville Center
Sun 08:59:46 AM 28.5980 -82.5720 175° South 448 516 37,000  Level FlightAware ADS-B
Sun 09:00:21 AM 28.5240 -82.5650 175° South 449 517 37,000  Level FlightAware ADS-B
Sun 09:01:11 AM 28.4170 -82.5550 175° South 455 524 37,000 67 Level FlightAware ADS-B
Sun 09:01:51 AM 28.3340 -82.5470 175° South 451 519 37,100 75 Climbing FlightAware ADS-B
Sun 09:02:31 AM 28.2590 -82.5400 176° South 438 504 37,100 -71 Level FlightAware ADS-B
Sun 09:03:16 AM 28.1660 -82.5320 175° South 432 497 37,000 -71 Descending FlightAware ADS-B
Sun 09:03:56 AM 28.0870 -82.5240 173° South 436 502 37,000  Level FlightAware ADS-B
Sun 09:05:13 AM 27.9280 -82.5010 161° South 429 494 37,000 -49 Level FlightAware ADS-B
Sun 09:05:58 AM 27.8440 -82.4690 162° South 423 487 36,900 -450 Descending FlightAware ADS-B
Sun 09:06:33 AM 27.7770 -82.4450 162° South 437 503 36,400 -880 Descending FlightAware ADS-B
Sun 09:07:13 AM 27.7010 -82.4170 162° South 441 507 35,800 -939 Descending FlightAware ADS-B
Sun 09:08:28 AM 27.5580 -82.3640 162° South 438 504 34,600 -1,150 Descending FlightAware ADS-B
Sun 09:09:13 AM 27.4620 -82.3290 162° South 444 511 33,500 -1,412 Descending FlightAware ADS-B
Sun 09:09:53 AM 27.3830 -82.3000 161° South 453 521 32,600 -1,425 Descending FlightAware ADS-B
Sun 09:10:33 AM 27.3050 -82.2700 140° Southeast 446 513 31,600 -1,395 Descending FlightAware ADS-B
Sun 09:11:19 AM 27.2310 -82.1990 136° Southeast 442 509 30,600 -1,187 Descending FlightAware ADS-B
Sun 09:12:04 AM 27.1610 -82.1220 135° Southeast 438 504 29,800 -1,059 Descending FlightAware ADS-B
Sun 09:12:44 AM 27.1010 -82.0550 135° Southeast 434 499 29,100 -975 Descending FlightAware ADS-B
Sun 09:13:24 AM 27.0470 -81.9950 136° Southeast 432 497 28,500 -918 Descending FlightAware ADS-B
Sun 09:14:09 AM 26.9810 -81.9230 135° Southeast 427 491 27,800 -988 Descending FlightAware ADS-B
Sun 09:14:49 AM 26.9230 -81.8590 135° Southeast 429 494 27,100 -1,050 Descending FlightAware ADS-B
Sun 09:15:29 AM 26.8680 -81.7980 135° Southeast 427 491 26,400 -1,624 Descending FlightAware ADS-B
Sun 09:16:14 AM 26.8060 -81.7290 136° Southeast 425 489 24,800 -2,047 Descending FlightAware ADS-B
Sun 09:16:54 AM 26.7540 -81.6730 136° Southeast 417 480 23,500 -2,047 Descending FlightAware ADS-B
Sun 09:17:39 AM 26.6930 -81.6060 136° Southeast 413 475 21,900 -2,233 Descending FlightAware ADS-B
Sun 09:18:20 AM 26.6290 -81.5370 136° Southeast 409 471 20,300 -1,425 Descending FlightAware ADS-B
Sun 09:18:59 AM 26.5870 -81.4910 135° Southeast 390 449 20,000 -1,500 Descending FlightAware ADS-B
Sun 09:19:44 AM 26.5300 -81.4280 136° Southeast 390 449 18,200 -2,800 Descending FlightAware ADS-B
Sun 09:20:29 AM 26.4610 -81.3530 136° Southeast 389 448 15,800 -2,581 Descending FlightAware ADS-B
Sun 09:21:10 AM 26.4090 -81.2970 136° Southeast 381 438 14,500 -1,950 Descending FlightAware ADS-B
Sun 09:21:49 AM 26.3600 -81.2440 135° Southeast 366 421 13,200 -2,100 Descending FlightAware ADS-B
Sun 09:22:30 AM 26.3090 -81.1880 136° Southeast 364 419 11,700 -2,025 Descending FlightAware ADS-B
Sun 09:23:09 AM 26.2620 -81.1370 137° Southeast 346 398 10,500 -1,146 Descending FlightAware ADS-B
Sun 09:23:59 AM 26.2070 -81.0790 134° Southeast 304 350 10,000 -640 Descending FlightAware ADS-B
Sun 09:24:24 AM 26.1860 -81.0550 138° Southeast 291 335 9,700 -1,050 Descending FlightAware ADS-B
Sun 09:24:39 AM 26.1720 -81.0410 135° Southeast 285 328 9,300 -1,600 Descending FlightAware ADS-B
Sun 09:25:09 AM 26.1410 -81.0060 127° Southeast 279 321 8,500 -1,418 Descending FlightAware ADS-B
Sun 09:25:34 AM 26.1230 -80.9790 117° Southeast 276 318 8,000 -1,050 Descending FlightAware ADS-B
Sun 09:25:49 AM 26.1170 -80.9660 114° Southeast 276 318 7,800 -1,371 Descending FlightAware ADS-B
Sun 09:26:09 AM 26.1040 -80.9330 114° Southeast 276 318 7,200 -1,500 Descending FlightAware ADS-B
Sun 09:26:29 AM 26.0940 -80.9080 114° Southeast 271 312 6,800 -1,200 Descending FlightAware ADS-B
Sun 09:26:59 AM 26.0790 -80.8700 95° East 263 303 6,200 -1,200 Descending FlightAware ADS-B
Sun 09:27:09 AM 26.0780 -80.8570 82° East 266 306 6,000 -450 Descending FlightAware ADS-B
Sun 09:27:39 AM 26.0830 -80.8160 87° East 268 308 5,900 -100 Descending FlightAware ADS-B
Sun 09:28:09 AM 26.0850 -80.7740 98° East 264 304 5,900  Level FlightAware ADS-B
Sun 09:28:34 AM 26.0810 -80.7430 94° East 271 312 5,900 -109 Level FlightAware ADS-B
Sun 09:29:04 AM 26.0780 -80.6980 86° East 274 315 5,800 -293 Descending FlightAware ADS-B
Sun 09:29:15 AM 26.0790 -80.6810 87° East 269 310 5,700 -450 Descending FlightAware ADS-B
Sun 09:29:44 AM 26.0810 -80.6440 82° East 262 302 5,500 -353 Descending FlightAware ADS-B
Sun 09:29:49 AM 26.0820 -80.6360 94° East 262 302 5,500 -267 Level FlightAware ADS-B
Sun 09:30:29 AM 26.0790 -80.5830 90° East 266 306 5,300 -360 Descending FlightAware ADS-B
Sun 09:30:39 AM 26.0790 -80.5670 90° East 268 308 5,200 -450 Descending FlightAware ADS-B
Sun 09:31:09 AM 26.0790 -80.5260 90° East 267 307 5,000 -436 Descending FlightAware ADS-B
Sun 09:31:34 AM 26.0790 -80.4920 90° East 268 308 4,800 -545 Descending FlightAware ADS-B
Sun 09:32:04 AM 26.0790 -80.4520 93° East 250 288 4,500 -800 Descending FlightAware ADS-B
Sun 09:32:19 AM 26.0780 -80.4330 90° East 246 283 4,200 -1,029 Descending FlightAware ADS-B
Sun 09:32:39 AM 26.0780 -80.4080 90° East 242 278 3,900 -1,200 Descending FlightAware ADS-B
Sun 09:33:09 AM 26.0780 -80.3720 90° East 226 260 3,200 -1,108 Descending FlightAware ADS-B
Sun 09:33:44 AM 26.0780 -80.3360 90° East 186 214 2,700 -831 Descending FlightAware ADS-B
Sun 09:34:14 AM 26.0780 -80.3090 90° East 169 194 2,300 -873 Descending FlightAware ADS-B
Sun 09:34:39 AM 26.0780 -80.2870 93° East 165 190 1,900 -873 Descending FlightAware ADS-B
Sun 09:35:09 AM 26.0770 -80.2650 90° East 157 181 1,500 -655 Descending FlightAware ADS-B
Sun 09:35:34 AM 26.0770 -80.2450 90° East 133 153 1,300 -720 Descending FlightAware ADS-B
Sun 09:35:59 AM 26.0770 -80.2270 90° East 136 157 900 -800 Descending FlightAware ADS-B
Sun 09:36:34 AM 26.0770 -80.2020 90° East 139 160 500 -700 Descending FlightAware ADS-B
Sun 09:36:59 AM 26.0770 -80.1850 90° East 141 162 200 -720 Descending FlightAware ADS-B

Login

Don't have an account? Register now (free) for customized features, flight alerts, and more!